Terminal Aerodrome Forecast
Issued by NWS

Home | Current Version | Previous Version | Text Only | Print | Product List | Glossary On
Versions: 1 2 3 4 5 6 7 8 9 10 11 12 13 14 15 16 17 18
000
FTUS43 KFGF 230128 AAB
TAFDVL
TAF AMD
KDVL 230128Z 2301/2324 15021KT P6SM BKN040
     FM230500 17012KT P6SM SCT025
     FM230600 17011KT P6SM SCT130
     FM231200 17007KT P6SM BKN200
     FM232000 VRB03KT P6SM BKN060=

USA.gov is the U.S. government's official web portal to all federal, state and local government web resources and services.